createdAt,value
2023-03-16T00:01:08.684Z,97351.53
2023-03-16T00:03:36.501Z,97343.66
2023-03-16T00:06:03.740Z,97349.66
2023-03-16T00:08:30.335Z,97340.31
2023-03-16T00:10:57.233Z,97341.16
2023-03-16T00:13:24.849Z,97348.28
2023-03-16T00:15:55.683Z,97347.59
2023-03-16T00:18:27.213Z,97350.22
2023-03-16T00:20:58.909Z,97347.63
2023-03-16T00:23:29.310Z,97350.47
2023-03-16T00:25:59.787Z,97362.47
2023-03-16T00:28:27.917Z,97361.69
2023-03-16T00:30:59.197Z,97356.50
2023-03-16T00:33:26.859Z,97348.66
2023-03-16T00:36:02.130Z,97349.41
2023-03-16T00:38:32.171Z,97353.56
2023-03-16T00:40:58.952Z,97362.25
2023-03-16T00:43:27.233Z,97369.19
2023-03-16T00:46:06.929Z,97370.38
2023-03-16T00:48:35.247Z,97371.28
2023-03-16T00:51:07.892Z,97368.91
2023-03-16T00:53:36.161Z,97365.66
2023-03-16T00:56:04.489Z,97356.19
2023-03-16T00:58:36.065Z,97350.13
2023-03-16T01:01:04.791Z,97348.34
2023-03-16T01:03:32.471Z,97345.75
2023-03-16T01:06:04.600Z,97360.22
2023-03-16T01:08:33.080Z,97368.78
2023-03-16T01:11:06.213Z,97361.75
2023-03-16T01:13:33.010Z,97357.25
2023-03-16T01:16:00.434Z,97354.47
2023-03-16T01:18:28.387Z,97336.06
2023-03-16T01:20:54.989Z,97329.00
2023-03-16T01:23:23.087Z,97331.31
2023-03-16T01:25:58.609Z,97330.38
2023-03-16T01:28:28.309Z,97326.75
2023-03-16T01:31:04.157Z,97324.91
2023-03-16T01:33:33.650Z,97317.97
2023-03-16T01:36:04.170Z,97316.28
2023-03-16T01:38:39.666Z,97303.34
2023-03-16T01:41:07.582Z,97293.69
2023-03-16T01:43:37.521Z,97291.94
2023-03-16T01:46:07.275Z,97299.69
2023-03-16T01:48:45.657Z,97294.34
2023-03-16T01:51:21.286Z,97290.94
2023-03-16T01:53:53.012Z,97301.38
2023-03-16T01:56:25.745Z,97293.59
2023-03-16T01:58:58.664Z,97288.44
2023-03-16T02:01:29.196Z,97285.03
2023-03-16T02:04:29.262Z,97282.47
2023-03-16T02:07:00.404Z,97278.03
2023-03-16T02:09:29.750Z,97281.28
2023-03-16T02:11:57.175Z,97276.19
2023-03-16T02:14:25.600Z,97265.13
2023-03-16T02:16:52.800Z,97268.78
2023-03-16T02:19:35.580Z,97267.19
2023-03-16T02:22:06.607Z,97268.94
2023-03-16T02:24:34.735Z,97259.44
2023-03-16T02:27:06.586Z,97253.34
2023-03-16T02:29:44.942Z,97246.50
2023-03-16T02:32:13.716Z,97243.13
2023-03-16T02:34:42.112Z,97239.84
2023-03-16T02:37:10.371Z,97240.75
2023-03-16T02:39:36.990Z,97243.38
2023-03-16T02:42:04.957Z,97231.19
2023-03-16T02:44:35.209Z,97229.47
2023-03-16T02:47:11.367Z,97227.66
2023-03-16T02:49:41.424Z,97237.03
2023-03-16T02:52:08.944Z,97238.78
2023-03-16T02:54:35.864Z,97238.69
2023-03-16T02:57:02.924Z,97232.47
2023-03-16T02:59:31.292Z,97231.47
2023-03-16T03:02:04.203Z,97227.16
2023-03-16T03:04:33.076Z,97221.19
2023-03-16T03:07:04.739Z,97221.25
2023-03-16T03:09:35.863Z,97224.75
2023-03-16T03:12:02.681Z,97223.00
2023-03-16T03:14:29.533Z,97221.28
2023-03-16T03:16:57.216Z,97222.19
2023-03-16T03:19:24.249Z,97221.34
2023-03-16T03:21:51.030Z,97215.19
2023-03-16T03:24:18.751Z,97223.78
2023-03-16T03:26:47.132Z,97233.25
2023-03-16T03:29:19.614Z,97222.88
2023-03-16T03:31:46.271Z,97223.78
2023-03-16T03:34:13.762Z,97219.47
2023-03-16T03:36:41.511Z,97213.34
2023-03-16T03:39:08.200Z,97213.44
2023-03-16T03:41:36.141Z,97212.59
2023-03-16T03:44:04.489Z,97210.00
2023-03-16T03:46:31.502Z,97217.06
2023-03-16T03:49:03.626Z,97216.94
2023-03-16T03:51:33.153Z,97211.00
2023-03-16T03:54:09.581Z,97208.38
2023-03-16T03:56:45.547Z,97204.06
2023-03-16T03:59:15.437Z,97201.44
2023-03-16T04:02:03.266Z,97200.47
2023-03-16T04:04:57.666Z,97200.47
2023-03-16T04:07:24.286Z,97197.06
2023-03-16T04:09:54.461Z,97194.47
2023-03-16T04:12:29.032Z,97195.31
2023-03-16T04:14:56.274Z,97191.88
2023-03-16T04:17:24.261Z,97195.31
2023-03-16T04:19:52.094Z,97198.72
2023-03-16T04:22:19.215Z,97197.88
2023-03-16T04:24:47.631Z,97196.19
2023-03-16T04:27:14.465Z,97196.91
2023-03-16T04:29:41.199Z,97195.22
2023-03-16T04:32:08.132Z,97195.38
2023-03-16T04:34:35.965Z,97191.94
2023-03-16T04:37:05.598Z,97197.00
2023-03-16T04:39:34.612Z,97194.41
2023-03-16T04:42:01.745Z,97188.38
2023-03-16T04:44:28.519Z,97189.25
2023-03-16T04:46:55.829Z,97188.31
2023-03-16T04:49:24.846Z,97190.91
2023-03-16T04:51:51.481Z,97186.75
2023-03-16T04:54:19.672Z,97173.66
2023-03-16T04:56:46.335Z,97178.91
2023-03-16T04:59:27.574Z,97170.25
2023-03-16T05:02:05.454Z,97167.63
2023-03-16T05:04:34.497Z,97165.84
2023-03-16T05:07:02.204Z,97169.28
2023-03-16T05:09:33.751Z,97158.91
2023-03-16T05:12:00.738Z,97154.56
2023-03-16T05:14:27.520Z,97154.56
2023-03-16T05:17:33.134Z,97146.88
2023-03-16T05:19:59.774Z,97145.09
2023-03-16T05:22:27.443Z,97139.94
2023-03-16T05:25:15.143Z,97145.16
2023-03-16T05:27:46.510Z,97146.88
2023-03-16T05:30:20.030Z,97142.66
2023-03-16T05:32:47.278Z,97133.16
2023-03-16T05:35:14.341Z,97142.69
2023-03-16T05:37:42.077Z,97147.03
2023-03-16T05:40:17.814Z,97145.31
2023-03-16T05:42:55.552Z,97147.03
2023-03-16T05:45:24.227Z,97143.63
2023-03-16T05:48:05.720Z,97151.38
2023-03-16T05:50:35.169Z,97149.44
2023-03-16T05:53:01.854Z,97147.84
2023-03-16T05:55:29.384Z,97151.06
2023-03-16T05:57:59.930Z,97156.03
2023-03-16T06:00:27.804Z,97150.81
2023-03-16T06:03:05.912Z,97148.97
2023-03-16T06:05:35.287Z,97154.88
2023-03-16T06:08:03.066Z,97153.78
2023-03-16T06:10:30.680Z,97156.91
2023-03-16T06:12:58.996Z,97154.81
2023-03-16T06:15:26.797Z,97153.84
2023-03-16T06:17:54.742Z,97154.38
2023-03-16T06:20:21.930Z,97162.00
2023-03-16T06:22:48.849Z,97154.19
2023-03-16T06:25:16.798Z,97153.41
2023-03-16T06:27:45.775Z,97161.94
2023-03-16T06:30:16.874Z,97161.03
2023-03-16T06:32:45.721Z,97160.00
2023-03-16T06:35:13.196Z,97158.00
2023-03-16T06:37:45.128Z,97151.63
2023-03-16T06:40:32.001Z,97150.41
2023-03-16T06:42:58.759Z,97152.75
2023-03-16T06:45:25.748Z,97156.72
2023-03-16T06:47:54.645Z,97161.53
2023-03-16T06:50:21.262Z,97161.66
2023-03-16T06:52:47.918Z,97149.97
2023-03-16T06:55:14.815Z,97151.69
2023-03-16T06:57:45.175Z,97152.81
2023-03-16T07:00:15.420Z,97155.31
2023-03-16T07:02:43.566Z,97143.88
2023-03-16T07:05:20.737Z,97153.03
2023-03-16T07:07:48.044Z,97155.25
2023-03-16T07:10:17.577Z,97150.84
2023-03-16T07:12:44.886Z,97154.09
2023-03-16T07:15:12.771Z,97150.66
2023-03-16T07:17:40.219Z,97158.66
2023-03-16T07:20:10.745Z,97158.03
2023-03-16T07:22:39.543Z,97153.56
2023-03-16T07:25:09.014Z,97161.19
2023-03-16T07:27:35.633Z,97158.09
2023-03-16T07:30:06.105Z,97161.72
2023-03-16T07:32:36.791Z,97157.72
2023-03-16T07:35:04.166Z,97148.75
2023-03-16T07:37:32.409Z,97167.16
2023-03-16T07:40:00.846Z,97159.66
2023-03-16T07:42:27.637Z,97163.25
2023-03-16T07:45:08.276Z,97148.09
2023-03-16T07:47:35.252Z,97150.13
2023-03-16T07:50:11.486Z,97149.59
2023-03-16T07:52:41.815Z,97165.28
2023-03-16T07:55:10.377Z,97149.75
2023-03-16T07:57:37.017Z,97145.25
2023-03-16T08:00:05.295Z,97142.56
2023-03-16T08:02:39.977Z,97143.78
2023-03-16T08:05:18.345Z,97152.47
2023-03-16T08:07:49.155Z,97153.56
2023-03-16T08:10:20.033Z,97146.25
2023-03-16T08:12:53.947Z,97151.53
2023-03-16T08:15:21.742Z,97145.53
2023-03-16T08:17:50.754Z,97167.09
2023-03-16T08:20:22.755Z,97162.59
2023-03-16T08:22:49.648Z,97156.03
2023-03-16T08:25:19.993Z,97147.69
2023-03-16T08:27:58.813Z,97147.25
2023-03-16T08:30:26.906Z,97142.22
2023-03-16T08:33:10.525Z,97142.19
2023-03-16T08:35:37.171Z,97134.38
2023-03-16T08:38:03.796Z,97133.28
2023-03-16T08:40:30.810Z,97124.97
2023-03-16T08:42:58.938Z,97125.16
2023-03-16T08:45:25.945Z,97116.09
2023-03-16T08:47:53.771Z,97115.00
2023-03-16T08:50:20.872Z,97124.09
2023-03-16T08:52:49.116Z,97121.06
2023-03-16T08:55:16.255Z,97119.28
2023-03-16T08:57:45.151Z,97122.66
2023-03-16T09:00:14.064Z,97132.16
2023-03-16T09:02:53.260Z,97124.34
2023-03-16T09:05:19.813Z,97126.59
2023-03-16T09:07:48.883Z,97122.16
2023-03-16T09:10:16.427Z,97127.53
2023-03-16T09:12:43.828Z,97120.66
2023-03-16T09:15:12.280Z,97118.63
2023-03-16T09:17:39.860Z,97111.75
2023-03-16T09:20:21.943Z,97113.47
2023-03-16T09:22:49.223Z,97118.06
2023-03-16T09:25:16.125Z,97122.09
2023-03-16T09:27:42.819Z,97114.88
2023-03-16T09:30:10.429Z,97117.28
2023-03-16T09:32:37.525Z,97106.13
2023-03-16T09:35:06.317Z,97113.47
2023-03-16T09:37:44.761Z,97103.00
2023-03-16T09:40:21.754Z,97109.50
2023-03-16T09:43:13.240Z,97106.72
2023-03-16T09:45:53.644Z,97109.69
2023-03-16T09:48:21.484Z,97109.78
2023-03-16T09:50:49.840Z,97114.22
2023-03-16T09:53:27.833Z,97121.34
2023-03-16T09:56:01.934Z,97117.53
2023-03-16T09:58:28.545Z,97126.06
2023-03-16T10:01:03.487Z,97118.91
2023-03-16T10:04:01.877Z,97128.91
2023-03-16T10:06:28.898Z,97117.72
2023-03-16T10:09:15.371Z,97113.31
2023-03-16T10:11:46.386Z,97105.50
2023-03-16T10:14:23.680Z,97108.25
2023-03-16T10:16:56.824Z,97117.91
2023-03-16T10:19:39.270Z,97112.19
2023-03-16T10:22:19.806Z,97102.22
2023-03-16T10:25:20.675Z,97117.00
2023-03-16T10:27:48.210Z,97104.78
2023-03-16T10:30:28.695Z,97099.72
2023-03-16T10:33:00.528Z,97095.47
2023-03-16T10:35:30.735Z,97100.28
2023-03-16T10:37:58.655Z,97092.56
2023-03-16T10:40:26.400Z,97101.56
2023-03-16T10:42:53.883Z,97098.56
2023-03-16T10:45:27.417Z,97101.72
2023-03-16T10:48:04.891Z,97104.22
2023-03-16T10:50:32.825Z,97103.53
2023-03-16T10:53:01.567Z,97102.44
2023-03-16T10:55:40.878Z,97103.38
2023-03-16T10:58:09.320Z,97095.19
2023-03-16T11:00:42.120Z,97093.47
2023-03-16T11:03:32.470Z,97090.88
2023-03-16T11:06:05.473Z,97100.34
2023-03-16T11:08:34.931Z,97094.38
2023-03-16T11:11:10.019Z,97096.19
2023-03-16T11:13:39.236Z,97079.28
2023-03-16T11:16:14.592Z,97079.28
2023-03-16T11:18:45.109Z,97073.88
2023-03-16T11:21:22.370Z,97071.53
2023-03-16T11:23:55.157Z,97066.53
2023-03-16T11:26:33.437Z,97058.53
2023-03-16T11:29:17.817Z,97066.31
2023-03-16T11:31:51.037Z,97061.03
2023-03-16T11:34:21.746Z,97060.22
2023-03-16T11:36:56.030Z,97060.72
2023-03-16T11:39:57.616Z,97060.59
2023-03-16T11:42:39.440Z,97069.91
2023-03-16T11:45:15.332Z,97062.31
2023-03-16T11:48:01.387Z,97059.16
2023-03-16T11:50:49.845Z,97066.88
2023-03-16T11:53:38.453Z,97052.28
2023-03-16T11:56:38.932Z,97060.38
2023-03-16T11:59:14.343Z,97053.31
2023-03-16T12:02:06.413Z,97043.59
2023-03-16T12:04:51.121Z,97042.34
2023-03-16T12:07:43.720Z,97027.31
2023-03-16T12:10:26.614Z,97030.34
2023-03-16T12:13:08.613Z,97013.47
2023-03-16T12:15:42.555Z,97016.19
2023-03-16T12:18:18.254Z,97010.25
2023-03-16T12:20:53.941Z,97016.22
2023-03-16T12:23:28.938Z,97009.13
2023-03-16T12:25:59.951Z,97006.78
2023-03-16T12:28:29.252Z,97003.72
2023-03-16T12:31:03.422Z,97008.44
2023-03-16T12:33:48.572Z,97002.78
2023-03-16T12:36:34.225Z,96998.22
2023-03-16T12:39:13.709Z,97000.84
2023-03-16T12:42:26.150Z,96995.47
2023-03-16T12:45:13.054Z,96990.22
2023-03-16T12:48:18.605Z,96989.25
2023-03-16T12:50:55.192Z,96979.81
2023-03-16T12:53:27.082Z,96975.00
2023-03-16T12:55:53.981Z,96973.03
2023-03-16T12:58:24.026Z,96972.28
2023-03-16T13:01:00.124Z,96959.44
2023-03-16T13:03:28.498Z,96952.38
2023-03-16T13:05:59.510Z,96949.00
2023-03-16T13:08:28.937Z,96955.75
2023-03-16T13:11:06.174Z,96959.53
2023-03-16T13:13:34.179Z,96954.84
2023-03-16T13:16:10.279Z,96954.16
2023-03-16T13:18:44.617Z,96959.75
2023-03-16T13:21:21.500Z,96950.59
2023-03-16T13:24:14.728Z,96947.97
2023-03-16T13:26:45.404Z,96946.78
2023-03-16T13:29:27.414Z,96952.22
2023-03-16T13:31:59.222Z,96948.91
2023-03-16T13:34:37.586Z,96940.97
2023-03-16T13:37:04.534Z,96937.06
2023-03-16T13:39:33.696Z,96935.38
2023-03-16T13:42:17.924Z,96938.00
2023-03-16T13:44:45.716Z,96936.13
2023-03-16T13:47:14.842Z,96944.13
2023-03-16T13:49:55.767Z,96935.31
2023-03-16T13:52:34.399Z,96925.44
2023-03-16T13:55:15.584Z,96924.97
2023-03-16T13:57:44.254Z,96928.91
2023-03-16T14:00:22.058Z,96924.47
2023-03-16T14:03:17.853Z,96916.44
2023-03-16T14:05:45.416Z,96920.44
2023-03-16T14:08:18.121Z,96909.41
2023-03-16T14:10:45.615Z,96900.22
2023-03-16T14:13:32.595Z,96897.81
2023-03-16T14:16:02.844Z,96895.59
2023-03-16T14:18:36.211Z,96893.59
2023-03-16T14:21:09.811Z,96893.91
2023-03-16T14:23:47.691Z,96892.72
2023-03-16T14:26:18.761Z,96892.09
2023-03-16T14:29:04.553Z,96874.59
2023-03-16T14:31:36.629Z,96876.41
2023-03-16T14:34:19.945Z,96869.47
2023-03-16T14:36:46.955Z,96864.84
2023-03-16T14:39:17.321Z,96859.69
2023-03-16T14:41:45.263Z,96855.66
2023-03-16T14:44:24.853Z,96864.06
2023-03-16T14:46:54.149Z,96861.88
2023-03-16T14:49:37.392Z,96860.09
2023-03-16T14:52:25.519Z,96865.47
2023-03-16T14:54:52.334Z,96859.16
2023-03-16T14:57:19.597Z,96853.47
2023-03-16T14:59:46.737Z,96861.06
2023-03-16T15:02:38.589Z,96855.88
2023-03-16T15:05:23.895Z,96849.75
2023-03-16T15:07:54.926Z,96834.63
2023-03-16T15:10:25.494Z,96836.28
2023-03-16T15:13:04.100Z,96841.38
2023-03-16T15:15:31.599Z,96840.09
2023-03-16T15:17:59.261Z,96842.72
2023-03-16T15:20:31.748Z,96841.03
2023-03-16T15:22:59.907Z,96839.88
2023-03-16T15:25:38.354Z,96834.94
2023-03-16T15:28:22.685Z,96826.22
2023-03-16T15:30:52.563Z,96813.56
2023-03-16T15:33:19.731Z,96798.91
2023-03-16T15:35:49.234Z,96802.41
2023-03-16T15:38:20.510Z,96799.00
2023-03-16T15:40:48.053Z,96799.50
2023-03-16T15:43:18.257Z,96804.91
2023-03-16T15:45:46.032Z,96798.38
2023-03-16T15:48:13.264Z,96805.09
2023-03-16T15:50:44.213Z,96805.06
2023-03-16T15:53:30.617Z,96805.47
2023-03-16T15:56:04.678Z,96800.00
2023-03-16T15:58:34.062Z,96795.22
2023-03-16T16:01:02.834Z,96788.75
2023-03-16T16:03:30.183Z,96784.53
2023-03-16T16:05:57.110Z,96782.84
2023-03-16T16:08:23.777Z,96781.91
2023-03-16T16:10:53.189Z,96788.66
2023-03-16T16:13:31.187Z,96788.09
2023-03-16T16:16:04.666Z,96785.38
2023-03-16T16:18:36.517Z,96790.63
2023-03-16T16:21:05.558Z,96789.00
2023-03-16T16:23:32.988Z,96782.34
2023-03-16T16:26:12.617Z,96785.00
2023-03-16T16:28:39.310Z,96784.97
2023-03-16T16:31:13.298Z,96782.22
2023-03-16T16:33:40.251Z,96784.31
2023-03-16T16:36:14.358Z,96777.09
2023-03-16T16:38:41.488Z,96786.59
2023-03-16T16:41:09.599Z,96782.44
2023-03-16T16:43:46.946Z,96775.41
2023-03-16T16:46:22.571Z,96774.78
2023-03-16T16:49:01.817Z,96773.19
2023-03-16T16:51:29.913Z,96762.88
2023-03-16T16:53:58.480Z,96774.03
2023-03-16T16:56:31.858Z,96774.25
2023-03-16T16:59:01.652Z,96784.44
2023-03-16T17:01:33.109Z,96776.50
2023-03-16T17:04:01.324Z,96780.41
2023-03-16T17:06:28.918Z,96779.47
2023-03-16T17:08:55.597Z,96772.19
2023-03-16T17:11:27.497Z,96773.47
2023-03-16T17:13:56.989Z,96777.13
2023-03-16T17:16:25.887Z,96777.50
2023-03-16T17:18:53.030Z,96777.84
2023-03-16T17:21:23.863Z,96777.00
2023-03-16T17:23:52.761Z,96771.22
2023-03-16T17:26:26.189Z,96771.31
2023-03-16T17:28:58.907Z,96769.81
2023-03-16T17:31:27.860Z,96774.19
2023-03-16T17:33:56.993Z,96772.41
2023-03-16T17:36:24.494Z,96763.06
2023-03-16T17:38:51.178Z,96766.59
2023-03-16T17:41:26.653Z,96760.59
2023-03-16T17:43:55.755Z,96761.00
2023-03-16T17:46:25.138Z,96760.72
2023-03-16T17:48:52.997Z,96760.13
2023-03-16T17:51:21.251Z,96756.75
2023-03-16T17:53:48.586Z,96754.44
2023-03-16T17:56:21.196Z,96761.25
2023-03-16T17:58:51.337Z,96761.06
2023-03-16T18:01:22.153Z,96761.16
2023-03-16T18:03:49.583Z,96748.34
2023-03-16T18:06:20.373Z,96759.75
2023-03-16T18:08:48.531Z,96754.88
2023-03-16T18:11:21.649Z,96767.03
2023-03-16T18:13:50.850Z,96771.16
2023-03-16T18:16:24.852Z,96772.94
2023-03-16T18:18:53.580Z,96776.22
2023-03-16T18:21:23.179Z,96764.06
2023-03-16T18:23:50.470Z,96765.16
2023-03-16T18:26:18.972Z,96765.00
2023-03-16T18:28:46.540Z,96762.94
2023-03-16T18:31:22.541Z,96758.53
2023-03-16T18:33:55.811Z,96760.06
2023-03-16T18:36:27.978Z,96767.06
2023-03-16T18:38:55.953Z,96760.91
2023-03-16T18:41:33.523Z,96762.75
2023-03-16T18:44:05.690Z,96763.03
2023-03-16T18:46:37.176Z,96762.09
2023-03-16T18:49:18.002Z,96769.22
2023-03-16T18:51:49.098Z,96772.19
2023-03-16T18:54:45.444Z,96763.97
2023-03-16T18:57:38.833Z,96758.34
2023-03-16T19:00:06.088Z,96759.09
2023-03-16T19:02:49.319Z,96748.09
2023-03-16T19:05:19.391Z,96767.03
2023-03-16T19:07:48.746Z,96768.91
2023-03-16T19:10:27.469Z,96764.59
2023-03-16T19:12:55.079Z,96771.03
2023-03-16T19:15:28.404Z,96767.38
2023-03-16T19:17:55.283Z,96761.50
2023-03-16T19:20:28.415Z,96761.03
2023-03-16T19:23:07.520Z,96759.44
2023-03-16T19:25:39.783Z,96772.53
2023-03-16T19:28:07.722Z,96775.66
2023-03-16T19:30:35.846Z,96775.94
2023-03-16T19:33:02.541Z,96766.75
2023-03-16T19:35:48.606Z,96760.84
2023-03-16T19:38:16.623Z,96755.44
2023-03-16T19:40:43.762Z,96770.59
2023-03-16T19:43:18.637Z,96762.63
2023-03-16T19:45:47.258Z,96755.06
2023-03-16T19:48:22.676Z,96752.34
2023-03-16T19:50:51.034Z,96740.84
2023-03-16T19:53:22.618Z,96750.47
2023-03-16T19:55:52.213Z,96745.50
2023-03-16T19:58:39.324Z,96746.25
2023-03-16T20:01:13.122Z,96743.81
2023-03-16T20:03:39.781Z,96741.47
2023-03-16T20:06:08.610Z,96741.56
2023-03-16T20:08:35.217Z,96748.09
2023-03-16T20:11:07.585Z,96742.44
2023-03-16T20:13:35.384Z,96730.94
2023-03-16T20:16:03.465Z,96733.03
2023-03-16T20:18:30.191Z,96730.84
2023-03-16T20:20:57.199Z,96721.31
2023-03-16T20:23:26.036Z,96721.31
2023-03-16T20:26:03.047Z,96719.28
2023-03-16T20:28:37.112Z,96710.56
2023-03-16T20:31:08.145Z,96705.59
2023-03-16T20:33:34.955Z,96718.88
2023-03-16T20:36:01.858Z,96712.91
2023-03-16T20:38:28.983Z,96714.34
2023-03-16T20:40:56.027Z,96704.63
2023-03-16T20:43:26.316Z,96703.59
2023-03-16T20:45:55.519Z,96705.19
2023-03-16T20:48:25.458Z,96707.16
2023-03-16T20:50:53.414Z,96708.00
2023-03-16T20:53:20.713Z,96708.66
2023-03-16T20:55:48.740Z,96700.91
2023-03-16T20:58:25.247Z,96699.56
2023-03-16T21:00:55.782Z,96695.75
2023-03-16T21:03:26.272Z,96685.38
2023-03-16T21:05:54.484Z,96696.94
2023-03-16T21:08:21.608Z,96697.63
2023-03-16T21:10:51.198Z,96693.47
2023-03-16T21:13:20.375Z,96695.25
2023-03-16T21:15:50.035Z,96689.28
2023-03-16T21:18:20.093Z,96684.88
2023-03-16T21:20:48.929Z,96684.03
2023-03-16T21:23:21.620Z,96682.59
2023-03-16T21:26:00.618Z,96686.16
2023-03-16T21:28:29.598Z,96691.31
2023-03-16T21:30:57.982Z,96691.41
2023-03-16T21:33:37.259Z,96677.75
2023-03-16T21:36:08.169Z,96665.84
2023-03-16T21:38:34.823Z,96662.94
2023-03-16T21:41:01.712Z,96657.06
2023-03-16T21:43:28.726Z,96656.22
2023-03-16T21:45:56.983Z,96662.78
2023-03-16T21:48:41.170Z,96665.75
2023-03-16T21:51:16.741Z,96670.47
2023-03-16T21:53:43.839Z,96667.38
2023-03-16T21:56:15.416Z,96657.75
2023-03-16T21:58:43.362Z,96649.06
2023-03-16T22:02:00.738Z,96643.72
2023-03-16T22:04:28.409Z,96647.63
2023-03-16T22:06:55.275Z,96636.13
2023-03-16T22:09:30.011Z,96636.22
2023-03-16T22:11:56.835Z,96637.16
2023-03-16T22:14:23.445Z,96631.28
2023-03-16T22:16:50.401Z,96624.25
2023-03-16T22:19:18.145Z,96621.56
2023-03-16T22:21:45.110Z,96622.28
2023-03-16T22:24:34.500Z,96627.34
2023-03-16T22:27:01.537Z,96614.94
2023-03-16T22:29:31.714Z,96621.00
2023-03-16T22:32:04.346Z,96612.84
2023-03-16T22:34:56.274Z,96616.31
2023-03-16T22:37:27.143Z,96623.31
2023-03-16T22:39:57.307Z,96621.53
2023-03-16T22:42:32.788Z,96623.22
2023-03-16T22:44:59.859Z,96616.34
2023-03-16T22:47:28.851Z,96614.75
2023-03-16T22:49:56.332Z,96614.00
2023-03-16T22:52:28.166Z,96614.09
2023-03-16T22:54:55.406Z,96606.16
2023-03-16T22:57:22.847Z,96612.31
2023-03-16T22:59:51.130Z,96599.41
2023-03-16T23:02:30.700Z,96609.50
2023-03-16T23:05:28.179Z,96599.03
2023-03-16T23:07:56.233Z,96591.28
2023-03-16T23:10:25.755Z,96594.84
2023-03-16T23:12:54.025Z,96601.66
2023-03-16T23:15:24.967Z,96587.84
2023-03-16T23:17:52.542Z,96587.16
2023-03-16T23:20:32.663Z,96578.41
2023-03-16T23:22:59.819Z,96572.66
2023-03-16T23:25:26.495Z,96568.78
2023-03-16T23:27:53.369Z,96573.91
2023-03-16T23:30:23.422Z,96578.84
2023-03-16T23:32:52.276Z,96579.19
2023-03-16T23:35:28.325Z,96571.34
2023-03-16T23:37:55.773Z,96568.28
2023-03-16T23:40:25.152Z,96570.34
2023-03-16T23:42:53.984Z,96569.09
2023-03-16T23:45:38.434Z,96567.31
2023-03-16T23:48:07.692Z,96567.47
2023-03-16T23:50:36.672Z,96573.72
2023-03-16T23:53:03.734Z,96568.34
2023-03-16T23:55:30.370Z,96573.28
2023-03-16T23:57:57.043Z,96575.81
